Time;durP1;ratioP1;P1;durP2;ratioP2;P2;SDS_P1;SDS_P2;PMS_P1;PMS_P2;Temp;Humidity;BMP_temperature;BMP_pressure;BME280_temperature;BME280_humidity;BME280_pressure;Samples;Min_cycle;Max_cycle;Signal;HPM_P1;HPM_P2
2022/07/10 00:01:08;;;;;;;7.82;1.42;;;14.60;99.90;;;;;;5041272;28;20040;-78
2022/07/10 00:03:33;;;;;;;8.23;1.63;;;14.60;99.90;;;;;;5049399;28;20348;-77
2022/07/10 00:05:59;;;;;;;6.93;1.80;;;14.50;99.90;;;;;;5015036;28;20420;-79
2022/07/10 00:08:25;;;;;;;8.98;1.83;;;14.60;99.90;;;;;;5036808;28;20036;-78
2022/07/10 00:10:50;;;;;;;8.90;1.92;;;14.50;99.90;;;;;;5019376;28;20165;-77
2022/07/10 00:13:16;;;;;;;8.70;1.80;;;14.50;99.90;;;;;;5038187;28;20055;-78
2022/07/10 00:15:42;;;;;;;9.43;1.70;;;14.60;99.90;;;;;;5040812;28;20063;-78
2022/07/10 00:18:07;;;;;;;10.23;2.03;;;14.50;99.90;;;;;;5034870;28;20101;-77
2022/07/10 00:20:34;;;;;;;9.85;1.90;;;14.50;99.90;;;;;;5029943;28;20579;-78
2022/07/10 00:22:59;;;;;;;6.90;1.50;;;14.50;99.90;;;;;;5048638;28;20359;-78
2022/07/10 00:25:25;;;;;;;14.75;2.00;;;14.50;99.90;;;;;;5041370;28;20456;-79
2022/07/10 00:27:51;;;;;;;8.93;1.70;;;14.50;99.90;;;;;;5055367;28;20075;-77
2022/07/10 00:30:17;;;;;;;8.57;1.95;;;14.50;99.90;;;;;;5047762;28;20086;-78
2022/07/10 00:32:42;;;;;;;9.98;2.03;;;14.50;99.90;;;;;;5077279;28;20494;-78
2022/07/10 00:35:08;;;;;;;9.35;1.95;;;14.50;99.90;;;;;;5049455;28;20565;-79
2022/07/10 00:37:36;;;;;;;11.43;1.90;;;14.50;99.90;;;;;;5031559;28;20067;-79
2022/07/10 00:40:02;;;;;;;8.35;2.03;;;14.60;99.90;;;;;;5080614;28;20093;-79
2022/07/10 00:42:27;;;;;;;9.98;2.10;;;14.50;99.90;;;;;;5054512;28;20036;-79
2022/07/10 00:44:53;;;;;;;6.65;1.50;;;14.50;99.90;;;;;;5060400;28;20102;-78
2022/07/10 00:47:19;;;;;;;10.90;1.85;;;14.50;99.90;;;;;;5051477;28;20119;-78
2022/07/10 00:49:46;;;;;;;9.45;2.08;;;14.50;99.90;;;;;;5069021;28;20040;-78
2022/07/10 00:52:14;;;;;;;7.28;1.63;;;14.30;99.90;;;;;;5066218;28;20040;-77
2022/07/10 00:54:43;;;;;;;11.15;1.90;;;14.40;99.90;;;;;;5065192;28;20039;-78
2022/07/10 00:57:09;;;;;;;9.63;2.10;;;14.30;99.90;;;;;;5068051;28;20032;-78
2022/07/10 00:59:36;;;;;;;7.15;1.80;;;14.30;99.90;;;;;;5083529;28;20529;-78
2022/07/10 01:02:03;;;;;;;9.27;2.10;;;14.20;99.90;;;;;;5032417;28;20072;-78
2022/07/10 01:04:30;;;;;;;11.80;2.30;;;14.20;99.90;;;;;;5042748;28;20047;-78
2022/07/10 01:06:55;;;;;;;8.18;1.98;;;14.20;99.90;;;;;;5060644;28;20032;-78
2022/07/10 01:09:21;;;;;;;11.30;2.33;;;14.20;99.90;;;;;;5051267;28;20044;-78
2022/07/10 01:11:48;;;;;;;11.65;1.80;;;14.20;99.90;;;;;;5053953;28;20039;-78
2022/07/10 01:14:15;;;;;;;12.38;2.20;;;14.20;99.90;;;;;;5055377;28;20239;-77
2022/07/10 01:16:41;;;;;;;10.18;2.10;;;14.20;99.90;;;;;;5071568;28;20040;-77
2022/07/10 01:19:07;;;;;;;10.85;2.35;;;14.20;99.90;;;;;;5071537;28;20051;-78
2022/07/10 01:21:35;;;;;;;7.40;1.75;;;14.20;99.90;;;;;;5085915;28;20402;-78
2022/07/10 01:24:06;;;;;;;11.23;2.33;;;14.20;99.90;;;;;;5055336;28;20039;-77
2022/07/10 01:26:32;;;;;;;9.73;2.10;;;14.20;99.90;;;;;;5088397;28;20048;-77
2022/07/10 01:29:01;;;;;;;10.05;2.10;;;14.30;99.90;;;;;;5056605;28;20089;-78
2022/07/10 01:31:28;;;;;;;10.57;1.95;;;14.30;99.90;;;;;;5077237;28;20063;-79
2022/07/10 01:33:55;;;;;;;8.35;2.00;;;14.30;99.90;;;;;;5068190;28;20036;-79
2022/07/10 01:36:21;;;;;;;10.70;1.90;;;14.30;99.90;;;;;;5047716;28;20518;-78
2022/07/10 01:38:48;;;;;;;10.57;1.80;;;14.30;99.90;;;;;;5070231;28;20092;-78
2022/07/10 01:41:13;;;;;;;9.20;2.05;;;14.30;99.90;;;;;;5070125;28;20570;-78
2022/07/10 01:43:42;;;;;;;9.68;1.80;;;14.30;99.90;;;;;;5064507;28;20028;-77
2022/07/10 01:46:10;;;;;;;9.27;1.90;;;14.30;99.90;;;;;;5070818;28;20036;-77
2022/07/10 01:48:37;;;;;;;12.27;1.85;;;14.30;99.90;;;;;;5052206;28;20049;-78
2022/07/10 01:51:03;;;;;;;6.95;1.58;;;14.20;99.90;;;;;;5068662;28;20035;-78
2022/07/10 01:53:29;;;;;;;8.43;1.77;;;14.20;99.90;;;;;;5054305;28;20051;-78
2022/07/10 01:55:55;;;;;;;5.65;1.40;;;14.20;99.90;;;;;;5070111;28;20522;-78
2022/07/10 01:58:21;;;;;;;9.77;2.22;;;14.20;99.90;;;;;;5066687;28;20568;-78
2022/07/10 02:00:47;;;;;;;9.35;2.08;;;14.10;99.90;;;;;;5067217;28;20040;-77
2022/07/10 02:05:57;;;;;;;10.80;1.95;;;14.20;99.90;;;;;;5073021;28;20417;-78
2022/07/10 02:08:23;;;;;;;8.32;1.80;;;14.20;99.90;;;;;;5053185;28;20036;-77
2022/07/10 02:10:49;;;;;;;7.30;1.70;;;14.20;99.90;;;;;;5070669;28;20044;-77
2022/07/10 02:13:17;;;;;;;9.90;1.80;;;14.20;99.90;;;;;;5069175;28;20525;-77
2022/07/10 02:15:43;;;;;;;7.97;1.70;;;14.20;99.90;;;;;;5065548;28;20040;-78
2022/07/10 02:18:09;;;;;;;8.75;1.67;;;14.20;99.90;;;;;;5051830;28;20040;-78
2022/07/10 02:20:36;;;;;;;10.02;1.70;;;14.20;99.90;;;;;;5099332;28;20055;-77
2022/07/10 02:23:02;;;;;;;9.32;1.67;;;14.20;99.90;;;;;;5085927;28;20035;-77
2022/07/10 02:25:27;;;;;;;10.32;2.28;;;14.20;99.90;;;;;;5065952;28;20651;-78
2022/07/10 02:27:53;;;;;;;10.63;2.17;;;14.20;99.90;;;;;;5054785;28;20097;-78
2022/07/10 02:30:19;;;;;;;8.85;1.90;;;14.20;99.90;;;;;;5049675;28;20398;-78
2022/07/10 02:32:45;;;;;;;10.90;2.10;;;13.90;99.90;;;;;;5069776;28;20044;-77
2022/07/10 02:35:11;;;;;;;9.30;2.20;;;14.10;99.90;;;;;;5053146;28;20066;-78
2022/07/10 02:37:36;;;;;;;11.02;2.10;;;14.10;99.90;;;;;;5063069;28;20032;-77
2022/07/10 02:40:03;;;;;;;11.27;2.13;;;14.00;99.90;;;;;;5087935;28;20501;-77
2022/07/10 02:42:29;;;;;;;10.13;2.30;;;14.00;99.90;;;;;;5068824;28;20406;-78
2022/07/10 02:44:54;;;;;;;12.13;2.40;;;14.00;99.90;;;;;;5067707;28;20467;-77
2022/07/10 02:47:20;;;;;;;9.65;2.10;;;14.00;99.90;;;;;;5051360;28;20086;-78
2022/07/10 02:49:46;;;;;;;10.75;2.50;;;14.00;99.90;;;;;;5070398;28;20040;-77
2022/07/10 02:52:11;;;;;;;7.82;1.60;;;14.00;99.90;;;;;;5063442;28;20135;-77
2022/07/10 02:54:37;;;;;;;6.28;1.73;;;14.00;99.90;;;;;;5052805;28;20043;-78
2022/07/10 02:57:04;;;;;;;9.55;1.75;;;13.90;99.90;;;;;;5052424;28;20076;-77
2022/07/10 02:59:29;;;;;;;10.45;2.25;;;13.90;99.90;;;;;;5056188;28;20036;-77
2022/07/10 03:01:55;;;;;;;9.27;2.00;;;13.90;99.90;;;;;;5083332;28;20501;-78
2022/07/10 03:04:21;;;;;;;7.65;1.88;;;14.00;99.90;;;;;;5067096;28;20044;-78
2022/07/10 03:06:46;;;;;;;8.70;1.77;;;14.00;99.90;;;;;;5061639;28;20043;-78
2022/07/10 03:09:12;;;;;;;9.77;1.67;;;14.00;99.90;;;;;;5049864;28;20040;-78
2022/07/10 03:11:38;;;;;;;10.45;2.05;;;14.00;99.90;;;;;;5052363;28;20025;-77
2022/07/10 03:14:03;;;;;;;8.90;1.73;;;14.00;99.90;;;;;;5069221;28;20490;-77
2022/07/10 03:16:29;;;;;;;9.52;1.80;;;14.00;99.90;;;;;;5049959;28;20086;-78
2022/07/10 03:18:55;;;;;;;10.77;1.90;;;14.00;99.90;;;;;;5049523;28;20032;-77
2022/07/10 03:21:21;;;;;;;10.55;1.70;;;14.00;99.90;;;;;;5033714;28;20032;-78
2022/07/10 03:23:46;;;;;;;10.15;1.90;;;14.00;99.90;;;;;;5086356;28;20032;-77
2022/07/10 03:26:12;;;;;;;10.75;2.00;;;14.00;99.90;;;;;;5050772;28;20134;-78
2022/07/10 03:28:38;;;;;;;6.70;1.98;;;14.00;99.90;;;;;;5068358;28;20502;-77
2022/07/10 03:31:03;;;;;;;10.13;1.70;;;14.00;99.90;;;;;;5048781;28;20318;-78
2022/07/10 03:33:29;;;;;;;7.28;1.67;;;14.00;99.90;;;;;;5046624;28;20411;-77
2022/07/10 03:35:55;;;;;;;9.70;1.58;;;14.00;99.90;;;;;;5086871;28;20043;-77
2022/07/10 03:38:20;;;;;;;10.27;2.00;;;14.00;99.90;;;;;;5081056;28;20700;-77
2022/07/10 03:40:47;;;;;;;12.07;2.10;;;14.10;99.90;;;;;;5049573;28;20054;-77
2022/07/10 03:43:14;;;;;;;6.32;1.73;;;14.10;99.90;;;;;;5074718;28;20048;-78
2022/07/10 03:45:40;;;;;;;9.27;2.10;;;14.20;99.90;;;;;;5066844;28;20508;-77
2022/07/10 03:48:06;;;;;;;9.68;2.00;;;14.20;99.90;;;;;;5060824;28;20040;-78
2022/07/10 03:50:32;;;;;;;9.93;2.08;;;14.20;99.90;;;;;;5052933;28;20119;-79
2022/07/10 03:52:58;;;;;;;14.07;2.20;;;14.30;99.90;;;;;;5041040;28;20066;-77
2022/07/10 03:55:24;;;;;;;9.05;1.75;;;14.30;99.90;;;;;;5067459;28;20036;-78
2022/07/10 03:58:02;;;;;;;9.50;2.00;;;14.30;99.90;;;;;;5044914;28;20033;-77
2022/07/10 04:00:33;;;;;;;10.32;1.80;;;14.40;99.90;;;;;;5064123;28;20510;-77
2022/07/10 04:03:03;;;;;;;9.05;2.00;;;14.40;99.90;;;;;;5055446;28;20071;-77
2022/07/10 04:05:29;;;;;;;12.23;2.20;;;14.40;99.90;;;;;;5055166;28;20029;-77
2022/07/10 04:07:56;;;;;;;13.45;2.28;;;14.50;99.90;;;;;;5085366;28;20047;-78
2022/07/10 04:10:23;;;;;;;9.60;1.83;;;14.50;99.90;;;;;;5055593;28;20130;-78
2022/07/10 04:12:49;;;;;;;7.72;1.95;;;14.50;99.90;;;;;;5076255;28;20046;-79
2022/07/10 04:15:15;;;;;;;10.95;2.10;;;14.60;99.90;;;;;;5034007;28;20036;-77
2022/07/10 04:17:41;;;;;;;11.90;2.15;;;14.60;99.90;;;;;;5062833;28;20522;-78
2022/07/10 04:20:07;;;;;;;9.98;1.90;;;14.70;99.90;;;;;;5082385;28;20048;-77
2022/07/10 04:22:33;;;;;;;10.40;1.80;;;14.70;99.90;;;;;;5081446;28;20445;-77
2022/07/10 04:24:59;;;;;;;11.95;2.22;;;14.70;99.90;;;;;;5067234;28;20498;-78
2022/07/10 04:27:25;;;;;;;12.20;2.30;;;14.70;99.90;;;;;;5072755;28;20047;-78
2022/07/10 04:29:50;;;;;;;9.90;2.20;;;14.70;99.90;;;;;;5067770;28;20075;-77
2022/07/10 04:32:16;;;;;;;11.07;2.28;;;14.80;99.90;;;;;;5066587;28;20505;-77
2022/07/10 04:34:42;;;;;;;12.07;2.30;;;14.80;99.90;;;;;;5085232;28;20050;-77
2022/07/10 04:37:08;;;;;;;14.35;2.58;;;14.80;99.90;;;;;;5061038;28;20043;-78
2022/07/10 04:39:38;;;;;;;14.55;2.45;;;14.80;99.90;;;;;;5069097;28;20047;-77
2022/07/10 04:42:05;;;;;;;10.93;2.10;;;14.80;99.90;;;;;;5072033;28;20127;-77
2022/07/10 04:44:31;;;;;;;11.75;2.22;;;14.80;99.90;;;;;;5084487;28;20040;-77
2022/07/10 04:46:58;;;;;;;10.43;2.22;;;14.80;99.90;;;;;;5049011;28;20043;-77
2022/07/10 04:49:24;;;;;;;10.25;2.15;;;14.80;99.90;;;;;;5083417;28;20491;-78
2022/07/10 04:51:50;;;;;;;10.32;2.20;;;14.80;99.90;;;;;;5086412;28;20094;-78
2022/07/10 04:54:15;;;;;;;11.05;2.20;;;14.80;99.90;;;;;;5066810;28;20481;-79
2022/07/10 04:56:41;;;;;;;12.02;2.22;;;14.90;99.90;;;;;;5054832;28;20713;-78
2022/07/10 04:59:07;;;;;;;13.10;2.53;;;14.80;99.90;;;;;;5046512;28;20474;-78
2022/07/10 05:01:33;;;;;;;8.63;2.10;;;14.90;99.90;;;;;;5076249;28;20044;-78
2022/07/10 05:03:59;;;;;;;12.23;2.75;;;14.80;99.90;;;;;;5047674;28;20036;-80
2022/07/10 05:06:24;;;;;;;12.45;2.22;;;14.90;99.90;;;;;;5064316;28;20028;-79
2022/07/10 05:08:50;;;;;;;12.20;2.55;;;14.90;99.90;;;;;;5076573;28;20487;-79
2022/07/10 05:11:16;;;;;;;11.52;2.30;;;14.90;99.90;;;;;;5079579;28;20035;-78
2022/07/10 05:13:48;;;;;;;11.07;2.28;;;14.90;99.90;;;;;;5083270;28;20043;-78
2022/07/10 05:16:16;;;;;;;9.75;1.80;;;15.00;99.90;;;;;;5081533;28;20044;-78
2022/07/10 05:18:42;;;;;;;10.10;1.90;;;15.00;99.90;;;;;;5035748;28;20036;-77
2022/07/10 05:21:08;;;;;;;11.10;2.15;;;15.00;99.90;;;;;;5082267;28;20104;-78
2022/07/10 05:23:35;;;;;;;10.23;2.13;;;15.00;99.90;;;;;;5084072;28;20097;-78
2022/07/10 05:26:00;;;;;;;9.30;2.22;;;15.00;99.90;;;;;;5063180;28;20135;-78
2022/07/10 05:28:26;;;;;;;12.73;2.10;;;15.10;99.90;;;;;;5066244;28;20527;-78
2022/07/10 05:30:52;;;;;;;6.65;1.60;;;15.10;99.90;;;;;;5062402;28;20127;-79
2022/07/10 05:33:18;;;;;;;10.43;2.00;;;15.10;99.90;;;;;;5083702;28;20059;-78
2022/07/10 05:35:43;;;;;;;10.23;2.05;;;15.20;99.90;;;;;;5049920;28;20343;-78
2022/07/10 05:38:09;;;;;;;10.48;2.03;;;15.20;99.90;;;;;;5050285;28;20052;-78
2022/07/10 05:40:35;;;;;;;7.18;1.90;;;15.20;99.90;;;;;;5066695;28;20452;-78
2022/07/10 05:43:01;;;;;;;9.18;2.20;;;15.30;99.90;;;;;;5057095;28;20036;-79
2022/07/10 05:45:27;;;;;;;8.27;2.05;;;14.40;99.90;;;;;;5067039;28;20051;-78
2022/07/10 05:47:53;;;;;;;14.88;2.65;;;15.40;99.90;;;;;;5046560;28;20040;-78
2022/07/10 05:50:19;;;;;;;10.52;2.35;;;15.40;99.90;;;;;;5066416;28;20525;-78
2022/07/10 05:52:44;;;;;;;8.43;1.80;;;15.40;99.90;;;;;;5062173;28;20547;-77
2022/07/10 05:55:10;;;;;;;9.43;1.95;;;15.40;99.90;;;;;;5048621;28;20067;-78
2022/07/10 05:57:36;;;;;;;11.35;2.10;;;15.10;99.90;;;;;;5074650;28;20036;-77
2022/07/10 06:00:05;;;;;;;12.30;2.00;;;15.40;99.90;;;;;;5088261;28;20520;-79
2022/07/10 06:02:31;;;;;;;7.57;1.77;;;15.40;99.90;;;;;;5063282;28;20073;-78
2022/07/10 06:04:56;;;;;;;9.02;2.05;;;15.50;99.90;;;;;;5080981;28;20044;-78
2022/07/10 06:07:22;;;;;;;7.85;1.60;;;15.50;99.90;;;;;;5067613;28;20089;-77
2022/07/10 06:09:48;;;;;;;9.07;1.80;;;15.50;99.90;;;;;;5086609;28;20039;-78
2022/07/10 06:12:15;;;;;;;7.85;1.83;;;15.50;99.90;;;;;;5088735;28;20040;-77
2022/07/10 06:14:41;;;;;;;8.00;1.73;;;15.50;99.90;;;;;;5086772;28;20402;-77
2022/07/10 06:17:07;;;;;;;7.55;1.70;;;15.50;99.90;;;;;;5065748;28;20036;-78
2022/07/10 06:19:33;;;;;;;9.43;2.00;;;15.50;99.90;;;;;;5081783;28;20050;-78
2022/07/10 06:24:43;;;;;;;9.73;2.30;;;15.50;99.90;;;;;;5073035;28;20562;-77
2022/07/10 06:27:10;;;;;;;11.18;1.92;;;15.50;99.90;;;;;;5039849;28;20123;-78
2022/07/10 06:29:37;;;;;;;9.32;1.90;;;15.50;99.90;;;;;;5061898;28;20094;-78
2022/07/10 06:32:04;;;;;;;9.13;1.90;;;15.50;99.90;;;;;;5079369;28;20089;-78
2022/07/10 06:34:29;;;;;;;13.52;2.35;;;15.50;99.90;;;;;;5054439;28;20039;-78
2022/07/10 06:36:55;;;;;;;8.55;1.90;;;15.50;99.90;;;;;;5070347;28;20386;-79
2022/07/10 06:39:21;;;;;;;9.88;1.77;;;15.50;99.90;;;;;;5050457;28;20511;-78
2022/07/10 06:41:46;;;;;;;7.53;1.73;;;15.50;99.90;;;;;;5053467;28;20042;-78
2022/07/10 06:44:12;;;;;;;9.10;1.92;;;15.50;99.90;;;;;;5053225;28;20123;-78
2022/07/10 06:46:38;;;;;;;11.20;1.90;;;15.50;99.90;;;;;;5050060;28;20036;-78
2022/07/10 06:49:04;;;;;;;9.70;2.03;;;15.40;99.90;;;;;;5078830;28;20128;-78
2022/07/10 06:51:30;;;;;;;7.65;1.88;;;15.30;99.90;;;;;;5046040;28;20086;-77
2022/07/10 06:53:57;;;;;;;9.45;2.10;;;15.20;99.90;;;;;;5047411;28;20029;-77
2022/07/10 06:56:22;;;;;;;9.85;1.95;;;15.20;99.90;;;;;;5046520;28;20028;-78
2022/07/10 06:58:48;;;;;;;7.85;1.80;;;15.20;99.90;;;;;;5069807;28;20036;-78
2022/07/10 07:01:14;;;;;;;10.90;1.88;;;15.20;99.90;;;;;;5044370;28;20456;-78
2022/07/10 07:03:40;;;;;;;9.05;1.90;;;15.30;99.90;;;;;;5067635;28;20089;-78
2022/07/10 07:06:05;;;;;;;11.65;1.98;;;15.30;99.90;;;;;;5035198;28;20045;-78
2022/07/10 07:08:32;;;;;;;8.43;1.75;;;15.30;99.90;;;;;;5043889;28;20040;-78
2022/07/10 07:10:57;;;;;;;7.72;1.80;;;15.30;99.90;;;;;;5052264;28;20110;-77
2022/07/10 07:13:23;;;;;;;6.75;1.90;;;15.30;99.90;;;;;;5069314;28;20191;-78
2022/07/10 07:15:58;;;;;;;9.73;2.00;;;15.30;99.90;;;;;;5035080;28;20072;-78
2022/07/10 07:18:31;;;;;;;9.45;2.17;;;15.40;99.90;;;;;;5065944;28;20401;-77
2022/07/10 07:23:42;;;;;;;4.93;1.63;;;15.50;99.90;;;;;;5071573;28;20520;-78
2022/07/10 07:26:08;;;;;;;9.32;1.75;;;15.50;99.90;;;;;;5054705;28;20168;-79
2022/07/10 07:28:33;;;;;;;7.15;1.95;;;15.60;99.90;;;;;;5036769;28;20157;-79
2022/07/10 07:30:59;;;;;;;8.18;1.80;;;15.60;99.90;;;;;;5071708;28;20075;-78
2022/07/10 07:33:25;;;;;;;8.40;1.60;;;15.70;99.90;;;;;;5051897;28;20502;-78
2022/07/10 07:35:51;;;;;;;6.53;1.75;;;15.70;99.90;;;;;;5034811;28;20041;-78
2022/07/10 07:38:17;;;;;;;8.45;1.80;;;15.80;99.90;;;;;;5053664;28;20039;-79
2022/07/10 07:40:43;;;;;;;7.93;1.90;;;15.90;99.90;;;;;;5051584;28;20045;-78
2022/07/10 07:43:08;;;;;;;6.88;1.75;;;16.00;99.90;;;;;;5051912;28;20044;-78
2022/07/10 07:45:34;;;;;;;9.32;1.50;;;16.10;99.90;;;;;;5051431;28;20094;-78
2022/07/10 07:48:01;;;;;;;6.82;1.63;;;16.00;99.90;;;;;;5051260;28;20109;-78
2022/07/10 07:50:31;;;;;;;7.38;1.80;;;16.10;99.90;;;;;;5045025;28;20419;-78
2022/07/10 07:52:58;;;;;;;7.68;1.75;;;16.20;99.90;;;;;;5051155;28;20094;-79
2022/07/10 07:55:23;;;;;;;11.48;1.70;;;16.20;99.90;;;;;;5077115;28;20157;-78
2022/07/10 07:57:53;;;;;;;6.93;1.55;;;16.20;99.90;;;;;;5042091;28;20093;-78
2022/07/10 08:00:22;;;;;;;6.88;1.50;;;16.20;99.90;;;;;;5066623;28;20104;-78
2022/07/10 08:02:48;;;;;;;7.57;1.70;;;16.30;99.90;;;;;;5068425;28;20035;-80
2022/07/10 08:05:14;;;;;;;9.10;1.90;;;16.30;99.90;;;;;;5051110;28;20052;-78
2022/07/10 08:07:49;;;;;;;7.90;1.60;;;16.30;99.90;;;;;;5069731;28;20044;-79
2022/07/10 08:10:16;;;;;;;5.82;1.38;;;16.30;99.90;;;;;;5066063;28;20375;-78
2022/07/10 08:12:45;;;;;;;5.65;1.55;;;16.30;99.90;;;;;;5083037;28;20040;-78
2022/07/10 08:15:12;;;;;;;8.43;1.70;;;16.20;99.90;;;;;;5043502;28;20119;-79
2022/07/10 08:17:38;;;;;;;4.97;1.33;;;16.30;99.90;;;;;;5076354;28;20040;-78
2022/07/10 08:20:05;;;;;;;5.53;1.40;;;16.20;99.90;;;;;;5078350;28;20052;-78
2022/07/10 08:22:31;;;;;;;5.32;1.30;;;16.10;99.90;;;;;;5070627;28;20055;-79
2022/07/10 08:24:57;;;;;;;6.53;1.50;;;16.00;99.90;;;;;;5087551;28;20128;-78
2022/07/10 08:27:23;;;;;;;5.97;1.40;;;15.90;99.90;;;;;;5068079;28;20085;-80
2022/07/10 08:29:49;;;;;;;6.20;1.50;;;15.90;99.90;;;;;;5053902;28;20495;-79
2022/07/10 08:32:15;;;;;;;4.25;1.30;;;15.80;99.90;;;;;;5081403;28;20032;-78
2022/07/10 08:34:40;;;;;;;7.40;1.50;;;15.80;99.90;;;;;;5070087;28;20037;-77
2022/07/10 08:37:06;;;;;;;6.93;1.52;;;15.90;99.90;;;;;;5047439;28;20164;-78
2022/07/10 08:39:33;;;;;;;9.35;2.03;;;15.90;99.90;;;;;;5050736;28;20044;-78
2022/07/10 08:42:00;;;;;;;6.13;1.60;;;16.00;99.90;;;;;;5056737;28;20067;-79
2022/07/10 08:44:28;;;;;;;6.00;1.40;;;16.00;99.90;;;;;;5071345;28;20051;-78
2022/07/10 08:46:54;;;;;;;8.32;1.50;;;16.00;99.90;;;;;;5074904;28;20055;-78
2022/07/10 08:49:23;;;;;;;5.78;1.45;;;16.00;99.90;;;;;;5071738;28;20036;-78
2022/07/10 08:52:04;;;;;;;7.32;1.60;;;16.00;99.90;;;;;;5071253;28;20047;-78
2022/07/10 08:54:30;;;;;;;6.50;1.52;;;16.10;99.90;;;;;;5076699;28;20036;-78
2022/07/10 08:57:05;;;;;;;6.35;1.52;;;16.20;99.90;;;;;;5065643;28;20173;-77
2022/07/10 08:59:31;;;;;;;8.00;1.92;;;16.30;99.90;;;;;;5086757;28;20039;-78
2022/07/10 09:01:58;;;;;;;6.57;1.70;;;16.50;99.90;;;;;;5050155;28;20044;-78
2022/07/10 09:04:25;;;;;;;7.18;1.52;;;16.60;99.90;;;;;;5056225;28;20078;-78
2022/07/10 09:06:52;;;;;;;6.07;1.45;;;16.80;99.90;;;;;;5033998;28;20191;-78
2022/07/10 09:09:18;;;;;;;4.15;1.45;;;16.90;99.90;;;;;;5049562;28;20037;-78
2022/07/10 09:11:45;;;;;;;8.02;1.30;;;16.90;99.90;;;;;;5024479;28;20039;-77
2022/07/10 09:14:15;;;;;;;4.38;1.25;;;17.00;99.90;;;;;;5069709;28;20040;-77
2022/07/10 09:16:43;;;;;;;5.10;1.08;;;17.00;99.90;;;;;;5085552;28;20407;-78
2022/07/10 09:19:24;;;;;;;4.90;1.45;;;17.10;99.90;;;;;;5080326;28;20040;-81
2022/07/10 09:21:52;;;;;;;5.22;1.05;;;17.20;99.90;;;;;;5061643;28;20036;-80
2022/07/10 09:24:21;;;;;;;6.72;1.40;;;17.30;99.90;;;;;;5052253;28;20490;-79
2022/07/10 09:26:56;;;;;;;6.20;1.30;;;17.30;99.90;;;;;;5060386;28;20458;-80
2022/07/10 09:29:22;;;;;;;6.68;1.40;;;17.30;99.90;;;;;;5087007;28;20047;-78
2022/07/10 09:31:55;;;;;;;7.20;1.63;;;17.20;99.90;;;;;;5071720;28;20036;-80
2022/07/10 09:34:37;;;;;;;4.93;1.23;;;17.30;99.90;;;;;;5057403;28;20040;-80
2022/07/10 09:37:22;;;;;;;4.95;1.27;;;17.30;99.90;;;;;;5073765;28;20478;-80
2022/07/10 09:39:58;;;;;;;4.57;1.13;;;17.40;99.90;;;;;;5073962;28;20043;-79
2022/07/10 09:42:26;;;;;;;4.80;1.33;;;17.60;99.90;;;;;;5069313;28;20048;-80
2022/07/10 09:44:52;;;;;;;3.78;1.00;;;17.60;99.90;;;;;;5057190;28;20429;-80
2022/07/10 09:47:24;;;;;;;4.40;1.00;;;17.60;99.90;;;;;;5053592;28;20047;-79
2022/07/10 09:49:50;;;;;;;5.10;1.30;;;17.50;99.90;;;;;;5037186;28;20076;-80
2022/07/10 09:52:19;;;;;;;4.43;1.00;;;17.50;99.90;;;;;;5053300;28;20072;-80
2022/07/10 09:54:46;;;;;;;5.90;1.15;;;17.50;99.90;;;;;;5071759;28;20041;-80
2022/07/10 09:57:16;;;;;;;7.28;1.70;;;17.50;99.90;;;;;;5055014;28;20165;-79
2022/07/10 09:59:42;;;;;;;5.18;1.30;;;17.40;99.90;;;;;;5075375;28;20068;-80
2022/07/10 10:02:11;;;;;;;4.93;1.20;;;17.40;99.90;;;;;;5053737;28;20067;-79
2022/07/10 10:04:38;;;;;;;6.60;1.38;;;17.40;99.90;;;;;;5073554;28;20054;-81
2022/07/10 10:07:10;;;;;;;7.18;1.40;;;17.30;99.90;;;;;;5057336;28;20481;-81
2022/07/10 10:09:41;;;;;;;4.30;1.15;;;17.20;99.90;;;;;;5073655;28;20096;-80
2022/07/10 10:12:21;;;;;;;5.97;1.30;;;17.10;99.90;;;;;;5054667;28;20490;-81
2022/07/10 10:14:47;;;;;;;4.68;1.27;;;16.90;99.90;;;;;;5073490;28;20043;-79
2022/07/10 10:17:17;;;;;;;5.05;1.52;;;16.80;99.90;;;;;;5089527;28;20043;-79
2022/07/10 10:22:31;;;;;;;6.38;1.50;;;16.70;99.90;;;;;;5088638;28;20044;-79
2022/07/10 10:24:58;;;;;;;5.65;1.50;;;16.70;99.90;;;;;;5090161;28;20056;-80
2022/07/10 10:27:25;;;;;;;6.72;1.50;;;16.60;99.90;;;;;;5054537;28;20047;-79
2022/07/10 10:29:52;;;;;;;4.72;1.40;;;16.40;99.90;;;;;;5077633;28;20119;-80
2022/07/10 10:32:18;;;;;;;5.72;1.60;;;16.30;99.90;;;;;;5056642;28;20112;-78
2022/07/10 10:34:48;;;;;;;5.43;1.48;;;16.30;99.90;;;;;;5043854;28;20037;-79
2022/07/10 10:37:36;;;;;;;5.43;1.58;;;16.30;99.90;;;;;;5052480;28;20094;-79
2022/07/10 10:40:04;;;;;;;7.32;1.63;;;16.40;99.90;;;;;;5052971;28;20074;-79
2022/07/10 10:42:46;;;;;;;7.35;1.80;;;16.40;99.90;;;;;;5073902;28;20071;-79
2022/07/10 10:45:42;;;;;;;8.05;1.85;;;16.50;99.90;;;;;;5070642;28;20039;-79
2022/07/10 10:48:09;;;;;;;7.68;1.92;;;16.70;99.90;;;;;;5080639;28;20055;-79
2022/07/10 10:50:51;;;;;;;5.65;1.65;;;16.80;99.90;;;;;;5072743;28;20039;-80
2022/07/10 10:53:19;;;;;;;7.85;1.90;;;17.00;99.90;;;;;;5054116;28;20083;-80
2022/07/10 10:56:00;;;;;;;5.97;1.80;;;17.10;99.90;;;;;;5064926;28;20043;-80
2022/07/10 10:58:36;;;;;;;7.25;1.77;;;17.10;99.90;;;;;;5068319;28;20050;-81
2022/07/10 11:01:04;;;;;;;6.47;1.95;;;17.10;99.90;;;;;;5067826;28;20097;-80
2022/07/10 11:03:30;;;;;;;9.15;1.90;;;17.00;99.90;;;;;;5055289;28;20075;-78
2022/07/10 11:05:55;;;;;;;7.28;1.90;;;16.90;99.90;;;;;;5067363;28;20375;-77
2022/07/10 11:08:39;;;;;;;7.35;1.88;;;16.90;99.90;;;;;;5069391;28;21166;-78
2022/07/10 11:11:30;;;;;;;7.97;2.03;;;16.80;99.90;;;;;;5082009;28;20048;-77
2022/07/10 11:13:58;;;;;;;6.35;1.90;;;16.80;99.90;;;;;;5064589;28;20037;-77
2022/07/10 11:16:26;;;;;;;9.98;2.10;;;16.70;99.90;;;;;;5072957;28;20108;-77
2022/07/10 11:18:53;;;;;;;9.13;2.10;;;16.90;99.90;;;;;;5079968;28;20577;-78
2022/07/10 11:21:23;;;;;;;7.07;1.73;;;16.90;99.90;;;;;;5065077;28;20046;-77
2022/07/10 11:24:14;;;;;;;7.93;2.05;;;17.00;99.90;;;;;;5054695;28;20059;-78
2022/07/10 11:27:18;;;;;;;10.00;1.95;;;17.00;99.90;;;;;;5084820;28;20060;-78
2022/07/10 11:29:47;;;;;;;8.05;2.13;;;17.10;99.90;;;;;;5056063;28;20123;-78
2022/07/10 11:32:16;;;;;;;7.78;2.05;;;17.10;99.90;;;;;;5070913;28;20348;-80
2022/07/10 11:34:42;;;;;;;7.30;2.35;;;17.00;99.90;;;;;;5083181;28;20108;-77
2022/07/10 11:37:15;;;;;;;7.57;2.00;;;16.90;99.90;;;;;;5048454;28;20120;-78
2022/07/10 11:39:42;;;;;;;8.00;2.13;;;16.90;99.90;;;;;;5073020;28;20048;-79
2022/07/10 11:42:08;;;;;;;8.48;2.30;;;17.00;99.90;;;;;;5086575;28;20065;-77
2022/07/10 11:44:33;;;;;;;8.77;1.90;;;17.00;99.90;;;;;;5073073;28;20525;-78
2022/07/10 11:47:00;;;;;;;13.95;2.55;;;17.00;99.90;;;;;;5067708;28;20856;-78
2022/07/10 11:49:27;;;;;;;8.25;2.08;;;17.00;99.90;;;;;;5058005;28;20111;-78
2022/07/10 11:51:53;;;;;;;11.00;2.20;;;17.00;99.90;;;;;;5057123;28;20032;-78
2022/07/10 11:54:19;;;;;;;9.48;2.30;;;17.10;99.90;;;;;;5050854;28;20032;-77
2022/07/10 11:56:53;;;;;;;8.35;2.03;;;17.10;99.90;;;;;;5054119;28;20044;-78
2022/07/10 11:59:24;;;;;;;8.43;2.05;;;17.00;99.90;;;;;;5081739;28;20044;-79
2022/07/10 12:01:52;;;;;;;8.27;2.03;;;17.00;99.90;;;;;;5083027;28;20043;-78
2022/07/10 12:04:23;;;;;;;10.27;1.95;;;17.10;99.90;;;;;;5046438;28;20502;-78
2022/07/10 12:06:50;;;;;;;10.73;1.80;;;17.20;99.90;;;;;;5080816;28;20097;-78
2022/07/10 12:09:22;;;;;;;6.93;1.55;;;17.30;99.90;;;;;;5080085;28;20119;-80
2022/07/10 12:12:08;;;;;;;5.50;1.80;;;17.30;99.90;;;;;;4362104;28;10000699;-81
2022/07/10 12:14:34;;;;;;;6.78;1.60;;;17.40;99.90;;;;;;5071906;28;20393;-80
2022/07/10 12:17:04;;;;;;;7.68;1.83;;;17.40;99.90;;;;;;5057739;28;20040;-79
2022/07/10 12:19:37;;;;;;;7.40;1.83;;;17.40;99.90;;;;;;5064463;28;20119;-79
2022/07/10 12:22:05;;;;;;;4.55;1.40;;;17.40;99.90;;;;;;5082423;28;20479;-80
2022/07/10 12:24:32;;;;;;;7.63;1.60;;;17.50;99.90;;;;;;5066681;28;20545;-80
2022/07/10 12:26:58;;;;;;;5.88;1.60;;;17.50;99.90;;;;;;5054064;28;20121;-79
2022/07/10 12:29:26;;;;;;;6.00;1.48;;;17.60;99.90;;;;;;5053058;28;20044;-80
2022/07/10 12:31:54;;;;;;;7.22;1.55;;;17.70;99.90;;;;;;5036233;28;20061;-80
2022/07/10 12:34:32;;;;;;;6.63;1.60;;;17.80;99.90;;;;;;5086072;28;20094;-79
2022/07/10 12:36:57;;;;;;;6.80;1.80;;;17.80;99.90;;;;;;5065520;28;20032;-80
2022/07/10 12:39:24;;;;;;;4.15;1.60;;;17.70;99.90;;;;;;5065419;28;20314;-80
2022/07/10 12:42:02;;;;;;;6.95;1.60;;;17.70;99.90;;;;;;5079770;28;20043;-79
2022/07/10 12:44:40;;;;;;;6.10;1.60;;;17.60;99.90;;;;;;5078041;28;20178;-79
2022/07/10 12:47:12;;;;;;;5.97;1.65;;;17.60;99.90;;;;;;5077622;28;20457;-79
2022/07/10 12:49:53;;;;;;;5.60;1.77;;;17.60;99.90;;;;;;5063488;28;20042;-79
2022/07/10 12:52:25;;;;;;;6.20;1.67;;;17.60;99.90;;;;;;5073098;28;20494;-79
2022/07/10 12:55:10;;;;;;;;;;;17.60;99.90;;;;;;5068525;28;20040;-79
2022/07/10 12:57:54;;;;;;;7.32;1.50;;;17.70;99.90;;;;;;5058749;28;19916;-79